sensor_id;sensor_type;location;lat;lon;timestamp;temperature;humidity
78611;SHT30;67932;50.474;4.436;2023-05-10T00:01:50;11.57;96.02
78611;SHT30;67932;50.474;4.436;2023-05-10T00:04:16;11.50;95.80
78611;SHT30;67932;50.474;4.436;2023-05-10T00:06:42;11.56;96.01
78611;SHT30;67932;50.474;4.436;2023-05-10T00:09:09;11.58;95.85
78611;SHT30;67932;50.474;4.436;2023-05-10T00:11:35;11.61;95.97
78611;SHT30;67932;50.474;4.436;2023-05-10T00:14:01;11.64;96.10
78611;SHT30;67932;50.474;4.436;2023-05-10T00:16:28;11.64;95.86
78611;SHT30;67932;50.474;4.436;2023-05-10T00:18:54;11.67;95.77
78611;SHT30;67932;50.474;4.436;2023-05-10T00:21:20;11.64;96.03
78611;SHT30;67932;50.474;4.436;2023-05-10T00:23:47;11.73;96.10
78611;SHT30;67932;50.474;4.436;2023-05-10T00:26:13;11.66;96.36
78611;SHT30;67932;50.474;4.436;2023-05-10T00:28:40;11.68;96.51
78611;SHT30;67932;50.474;4.436;2023-05-10T00:31:06;11.67;96.37
78611;SHT30;67932;50.474;4.436;2023-05-10T00:33:33;11.66;96.47
78611;SHT30;67932;50.474;4.436;2023-05-10T00:35:59;11.68;96.47
78611;SHT30;67932;50.474;4.436;2023-05-10T00:38:26;11.71;96.49
78611;SHT30;67932;50.474;4.436;2023-05-10T00:40:52;11.71;96.61
78611;SHT30;67932;50.474;4.436;2023-05-10T00:43:20;11.77;96.51
78611;SHT30;67932;50.474;4.436;2023-05-10T00:45:46;11.70;96.45
78611;SHT30;67932;50.474;4.436;2023-05-10T00:48:12;11.74;96.55
78611;SHT30;67932;50.474;4.436;2023-05-10T00:50:39;11.75;96.61
78611;SHT30;67932;50.474;4.436;2023-05-10T00:53:06;11.77;96.61
78611;SHT30;67932;50.474;4.436;2023-05-10T00:55:32;11.77;96.54
78611;SHT30;67932;50.474;4.436;2023-05-10T00:57:58;11.74;96.46
78611;SHT30;67932;50.474;4.436;2023-05-10T01:00:25;11.75;96.46
78611;SHT30;67932;50.474;4.436;2023-05-10T01:02:53;11.77;96.37
78611;SHT30;67932;50.474;4.436;2023-05-10T01:05:19;11.79;96.36
78611;SHT30;67932;50.474;4.436;2023-05-10T01:07:45;11.81;96.49
78611;SHT30;67932;50.474;4.436;2023-05-10T01:10:12;11.78;96.26
78611;SHT30;67932;50.474;4.436;2023-05-10T01:12:40;11.81;96.57
78611;SHT30;67932;50.474;4.436;2023-05-10T01:15:11;11.84;96.61
78611;SHT30;67932;50.474;4.436;2023-05-10T01:17:39;11.84;96.38
78611;SHT30;67932;50.474;4.436;2023-05-10T01:20:07;11.84;96.65
78611;SHT30;67932;50.474;4.436;2023-05-10T01:31:18;11.79;95.90
78611;SHT30;67932;50.474;4.436;2023-05-10T01:34:01;11.81;96.07
78611;SHT30;67932;50.474;4.436;2023-05-10T01:36:35;11.85;95.77
78611;SHT30;67932;50.474;4.436;2023-05-10T01:39:13;11.82;96.06
78611;SHT30;67932;50.474;4.436;2023-05-10T01:44:45;11.81;95.93
78611;SHT30;67932;50.474;4.436;2023-05-10T01:47:16;11.77;95.92
78611;SHT30;67932;50.474;4.436;2023-05-10T01:49:54;11.84;96.00
78611;SHT30;67932;50.474;4.436;2023-05-10T01:52:26;11.81;95.86
78611;SHT30;67932;50.474;4.436;2023-05-10T01:55:04;11.84;95.89
78611;SHT30;67932;50.474;4.436;2023-05-10T01:57:35;11.81;95.66
78611;SHT30;67932;50.474;4.436;2023-05-10T02:00:04;11.81;95.63
78611;SHT30;67932;50.474;4.436;2023-05-10T02:02:33;11.82;95.69
78611;SHT30;67932;50.474;4.436;2023-05-10T02:05:01;11.82;95.63
78611;SHT30;67932;50.474;4.436;2023-05-10T02:07:29;11.78;95.60
78611;SHT30;67932;50.474;4.436;2023-05-10T02:09:57;11.79;95.75
78611;SHT30;67932;50.474;4.436;2023-05-10T02:12:24;11.77;95.82
78611;SHT30;67932;50.474;4.436;2023-05-10T02:14:52;11.78;95.80
78611;SHT30;67932;50.474;4.436;2023-05-10T02:17:20;11.82;96.08
78611;SHT30;67932;50.474;4.436;2023-05-10T02:19:47;11.81;95.83
78611;SHT30;67932;50.474;4.436;2023-05-10T02:22:16;11.78;95.43
78611;SHT30;67932;50.474;4.436;2023-05-10T02:24:44;11.78;95.59
78611;SHT30;67932;50.474;4.436;2023-05-10T02:27:11;11.82;95.82
78611;SHT30;67932;50.474;4.436;2023-05-10T02:29:38;11.75;95.50
78611;SHT30;67932;50.474;4.436;2023-05-10T02:32:06;11.77;95.43
78611;SHT30;67932;50.474;4.436;2023-05-10T02:34:33;11.71;95.84
78611;SHT30;67932;50.474;4.436;2023-05-10T02:37:00;11.78;95.59
78611;SHT30;67932;50.474;4.436;2023-05-10T02:39:28;11.75;95.48
78611;SHT30;67932;50.474;4.436;2023-05-10T02:41:55;11.73;95.15
78611;SHT30;67932;50.474;4.436;2023-05-10T02:44:23;11.75;95.74
78611;SHT30;67932;50.474;4.436;2023-05-10T02:46:50;11.77;95.72
78611;SHT30;67932;50.474;4.436;2023-05-10T02:49:16;11.75;95.60
78611;SHT30;67932;50.474;4.436;2023-05-10T02:51:47;11.70;95.47
78611;SHT30;67932;50.474;4.436;2023-05-10T02:54:29;11.73;95.72
78611;SHT30;67932;50.474;4.436;2023-05-10T02:56:59;11.71;96.04
78611;SHT30;67932;50.474;4.436;2023-05-10T02:59:26;11.66;95.64
78611;SHT30;67932;50.474;4.436;2023-05-10T03:01:53;11.60;95.51
78611;SHT30;67932;50.474;4.436;2023-05-10T03:04:19;11.64;95.82
78611;SHT30;67932;50.474;4.436;2023-05-10T03:06:46;11.63;96.04
78611;SHT30;67932;50.474;4.436;2023-05-10T03:09:13;11.64;95.98
78611;SHT30;67932;50.474;4.436;2023-05-10T03:12:13;11.54;95.53
78611;SHT30;67932;50.474;4.436;2023-05-10T03:17:57;11.51;95.09
78611;SHT30;67932;50.474;4.436;2023-05-10T03:20:38;11.48;94.86
78611;SHT30;67932;50.474;4.436;2023-05-10T03:23:26;11.51;94.83
78611;SHT30;67932;50.474;4.436;2023-05-10T03:25:53;11.47;94.85
78611;SHT30;67932;50.474;4.436;2023-05-10T03:28:22;11.48;94.50
78611;SHT30;67932;50.474;4.436;2023-05-10T03:30:52;11.54;94.62
78611;SHT30;67932;50.474;4.436;2023-05-10T03:33:19;11.50;94.55
78611;SHT30;67932;50.474;4.436;2023-05-10T03:35:46;11.48;94.31
78611;SHT30;67932;50.474;4.436;2023-05-10T03:38:15;11.50;94.63
78611;SHT30;67932;50.474;4.436;2023-05-10T03:40:41;11.47;94.79
78611;SHT30;67932;50.474;4.436;2023-05-10T03:43:08;11.43;94.90
78611;SHT30;67932;50.474;4.436;2023-05-10T03:45:34;11.41;95.28
78611;SHT30;67932;50.474;4.436;2023-05-10T03:48:01;11.37;95.76
78611;SHT30;67932;50.474;4.436;2023-05-10T03:50:27;11.30;95.87
78611;SHT30;67932;50.474;4.436;2023-05-10T03:52:54;11.16;95.48
78611;SHT30;67932;50.474;4.436;2023-05-10T03:55:20;11.14;95.72
78611;SHT30;67932;50.474;4.436;2023-05-10T03:57:46;11.03;96.19
78611;SHT30;67932;50.474;4.436;2023-05-10T04:00:15;11.02;96.04
78611;SHT30;67932;50.474;4.436;2023-05-10T04:02:41;10.92;96.02
78611;SHT30;67932;50.474;4.436;2023-05-10T04:05:08;10.90;96.13
78611;SHT30;67932;50.474;4.436;2023-05-10T04:07:34;10.89;96.04
78611;SHT30;67932;50.474;4.436;2023-05-10T04:10:01;10.86;96.16
78611;SHT30;67932;50.474;4.436;2023-05-10T04:12:27;10.80;96.23
78611;SHT30;67932;50.474;4.436;2023-05-10T04:14:53;10.75;96.21
78611;SHT30;67932;50.474;4.436;2023-05-10T04:17:19;10.73;95.81
78611;SHT30;67932;50.474;4.436;2023-05-10T04:19:46;10.66;96.16
78611;SHT30;67932;50.474;4.436;2023-05-10T04:22:12;10.63;96.31
78611;SHT30;67932;50.474;4.436;2023-05-10T04:24:38;10.69;96.27
78611;SHT30;67932;50.474;4.436;2023-05-10T04:27:04;10.60;96.13
78611;SHT30;67932;50.474;4.436;2023-05-10T04:29:30;10.63;95.69
78611;SHT30;67932;50.474;4.436;2023-05-10T04:31:57;10.56;95.23
78611;SHT30;67932;50.474;4.436;2023-05-10T04:34:23;10.55;94.44
78611;SHT30;67932;50.474;4.436;2023-05-10T04:36:49;10.58;94.39
78611;SHT30;67932;50.474;4.436;2023-05-10T04:39:16;10.52;93.67
78611;SHT30;67932;50.474;4.436;2023-05-10T04:41:42;10.46;93.86
78611;SHT30;67932;50.474;4.436;2023-05-10T04:44:08;10.42;93.44
78611;SHT30;67932;50.474;4.436;2023-05-10T04:46:34;10.39;94.27
78611;SHT30;67932;50.474;4.436;2023-05-10T04:49:01;10.34;93.70
78611;SHT30;67932;50.474;4.436;2023-05-10T04:51:27;10.38;94.02
78611;SHT30;67932;50.474;4.436;2023-05-10T04:53:53;10.39;93.54
78611;SHT30;67932;50.474;4.436;2023-05-10T04:56:20;10.28;94.33
78611;SHT30;67932;50.474;4.436;2023-05-10T04:58:46;10.32;94.06
78611;SHT30;67932;50.474;4.436;2023-05-10T05:01:12;10.34;94.02
78611;SHT30;67932;50.474;4.436;2023-05-10T05:03:38;10.29;94.07
78611;SHT30;67932;50.474;4.436;2023-05-10T05:06:05;10.32;93.79
78611;SHT30;67932;50.474;4.436;2023-05-10T05:08:31;10.29;94.47
78611;SHT30;67932;50.474;4.436;2023-05-10T05:10:57;10.27;94.48
78611;SHT30;67932;50.474;4.436;2023-05-10T05:13:23;10.27;94.77
78611;SHT30;67932;50.474;4.436;2023-05-10T05:15:50;10.25;94.60
78611;SHT30;67932;50.474;4.436;2023-05-10T05:18:16;10.15;94.75
78611;SHT30;67932;50.474;4.436;2023-05-10T05:20:42;10.22;95.07
78611;SHT30;67932;50.474;4.436;2023-05-10T05:23:08;10.21;95.00
78611;SHT30;67932;50.474;4.436;2023-05-10T05:25:35;10.17;94.81
78611;SHT30;67932;50.474;4.436;2023-05-10T05:28:01;10.17;94.73
78611;SHT30;67932;50.474;4.436;2023-05-10T05:30:28;10.14;95.05
78611;SHT30;67932;50.474;4.436;2023-05-10T05:32:54;10.18;95.28
78611;SHT30;67932;50.474;4.436;2023-05-10T05:35:20;10.18;95.10
78611;SHT30;67932;50.474;4.436;2023-05-10T05:37:46;10.17;95.49
78611;SHT30;67932;50.474;4.436;2023-05-10T05:40:13;10.14;95.45
78611;SHT30;67932;50.474;4.436;2023-05-10T05:42:40;10.15;95.13
78611;SHT30;67932;50.474;4.436;2023-05-10T05:45:06;10.09;95.05
78611;SHT30;67932;50.474;4.436;2023-05-10T05:47:34;10.14;95.60
78611;SHT30;67932;50.474;4.436;2023-05-10T05:50:00;10.07;94.65
78611;SHT30;67932;50.474;4.436;2023-05-10T05:52:27;10.11;95.48
78611;SHT30;67932;50.474;4.436;2023-05-10T05:54:53;10.15;95.71
78611;SHT30;67932;50.474;4.436;2023-05-10T05:57:19;10.15;95.64
78611;SHT30;67932;50.474;4.436;2023-05-10T05:59:45;10.11;95.69
78611;SHT30;67932;50.474;4.436;2023-05-10T06:02:12;10.18;95.98
78611;SHT30;67932;50.474;4.436;2023-05-10T06:04:39;10.15;96.10
78611;SHT30;67932;50.474;4.436;2023-05-10T06:07:05;10.18;96.27
78611;SHT30;67932;50.474;4.436;2023-05-10T06:09:31;10.18;96.19
78611;SHT30;67932;50.474;4.436;2023-05-10T06:11:58;10.17;96.04
78611;SHT30;67932;50.474;4.436;2023-05-10T06:14:24;10.18;96.06
78611;SHT30;67932;50.474;4.436;2023-05-10T06:16:51;10.21;96.06
78611;SHT30;67932;50.474;4.436;2023-05-10T06:19:17;10.12;95.75
78611;SHT30;67932;50.474;4.436;2023-05-10T06:21:43;10.24;96.40
78611;SHT30;67932;50.474;4.436;2023-05-10T06:24:09;10.24;96.14
78611;SHT30;67932;50.474;4.436;2023-05-10T06:26:36;10.22;95.88
78611;SHT30;67932;50.474;4.436;2023-05-10T06:29:02;10.19;95.97
78611;SHT30;67932;50.474;4.436;2023-05-10T06:31:28;10.31;96.16
78611;SHT30;67932;50.474;4.436;2023-05-10T06:33:54;10.34;96.08
78611;SHT30;67932;50.474;4.436;2023-05-10T06:36:21;10.35;96.24
78611;SHT30;67932;50.474;4.436;2023-05-10T06:38:47;10.42;96.57
78611;SHT30;67932;50.474;4.436;2023-05-10T06:41:14;10.35;96.08
78611;SHT30;67932;50.474;4.436;2023-05-10T06:43:40;10.37;95.90
78611;SHT30;67932;50.474;4.436;2023-05-10T06:46:07;10.32;95.94
78611;SHT30;67932;50.474;4.436;2023-05-10T06:48:33;10.45;96.06
78611;SHT30;67932;50.474;4.436;2023-05-10T06:51:00;10.37;95.84
78611;SHT30;67932;50.474;4.436;2023-05-10T06:53:26;10.38;95.95
78611;SHT30;67932;50.474;4.436;2023-05-10T06:55:52;10.38;96.03
78611;SHT30;67932;50.474;4.436;2023-05-10T06:58:18;10.37;95.62
78611;SHT30;67932;50.474;4.436;2023-05-10T07:00:45;10.44;96.11
78611;SHT30;67932;50.474;4.436;2023-05-10T07:03:12;10.41;95.20
78611;SHT30;67932;50.474;4.436;2023-05-10T07:05:38;10.46;95.92
78611;SHT30;67932;50.474;4.436;2023-05-10T07:08:05;10.45;95.73
78611;SHT30;67932;50.474;4.436;2023-05-10T07:10:31;10.49;96.04
78611;SHT30;67932;50.474;4.436;2023-05-10T07:12:57;10.45;95.81
78611;SHT30;67932;50.474;4.436;2023-05-10T07:15:24;10.44;95.61
78611;SHT30;67932;50.474;4.436;2023-05-10T07:17:51;10.42;95.40
78611;SHT30;67932;50.474;4.436;2023-05-10T07:20:18;10.59;96.24
78611;SHT30;67932;50.474;4.436;2023-05-10T07:22:44;10.49;95.65
78611;SHT30;67932;50.474;4.436;2023-05-10T07:25:10;10.52;95.51
78611;SHT30;67932;50.474;4.436;2023-05-10T07:27:37;10.59;95.72
78611;SHT30;67932;50.474;4.436;2023-05-10T07:30:03;10.70;95.44
78611;SHT30;67932;50.474;4.436;2023-05-10T07:32:29;10.66;95.22
78611;SHT30;67932;50.474;4.436;2023-05-10T07:34:56;10.75;95.54
78611;SHT30;67932;50.474;4.436;2023-05-10T07:37:22;10.73;95.54
78611;SHT30;67932;50.474;4.436;2023-05-10T07:39:48;10.76;95.56
78611;SHT30;67932;50.474;4.436;2023-05-10T07:42:15;10.86;95.50
78611;SHT30;67932;50.474;4.436;2023-05-10T07:44:41;10.69;94.63
78611;SHT30;67932;50.474;4.436;2023-05-10T07:47:07;10.73;95.20
78611;SHT30;67932;50.474;4.436;2023-05-10T07:49:34;10.75;95.14
78611;SHT30;67932;50.474;4.436;2023-05-10T07:52:00;10.77;95.53
78611;SHT30;67932;50.474;4.436;2023-05-10T07:54:26;10.73;95.17
78611;SHT30;67932;50.474;4.436;2023-05-10T07:56:52;10.80;95.05
78611;SHT30;67932;50.474;4.436;2023-05-10T07:59:19;10.79;94.91
78611;SHT30;67932;50.474;4.436;2023-05-10T08:01:45;10.90;95.43
78611;SHT30;67932;50.474;4.436;2023-05-10T08:04:12;10.82;94.59
78611;SHT30;67932;50.474;4.436;2023-05-10T08:06:38;10.88;94.52
78611;SHT30;67932;50.474;4.436;2023-05-10T08:09:05;10.86;94.54
78611;SHT30;67932;50.474;4.436;2023-05-10T08:11:31;10.90;94.67
78611;SHT30;67932;50.474;4.436;2023-05-10T08:13:58;10.83;94.49
78611;SHT30;67932;50.474;4.436;2023-05-10T08:16:24;10.86;93.92
78611;SHT30;67932;50.474;4.436;2023-05-10T08:18:51;10.95;94.54
78611;SHT30;67932;50.474;4.436;2023-05-10T08:21:17;10.97;94.05
78611;SHT30;67932;50.474;4.436;2023-05-10T08:23:44;10.99;94.16
78611;SHT30;67932;50.474;4.436;2023-05-10T08:26:10;10.99;94.00
78611;SHT30;67932;50.474;4.436;2023-05-10T08:28:36;10.96;93.86
78611;SHT30;67932;50.474;4.436;2023-05-10T08:31:03;10.86;93.76
78611;SHT30;67932;50.474;4.436;2023-05-10T08:33:29;10.97;94.33
78611;SHT30;67932;50.474;4.436;2023-05-10T08:35:56;10.99;94.42
78611;SHT30;67932;50.474;4.436;2023-05-10T08:38:22;11.03;94.61
78611;SHT30;67932;50.474;4.436;2023-05-10T08:40:49;11.09;94.88
78611;SHT30;67932;50.474;4.436;2023-05-10T08:43:16;11.19;94.09
78611;SHT30;67932;50.474;4.436;2023-05-10T08:45:45;11.30;93.92
78611;SHT30;67932;50.474;4.436;2023-05-10T08:48:13;11.40;93.66
78611;SHT30;67932;50.474;4.436;2023-05-10T08:50:40;11.38;92.82
78611;SHT30;67932;50.474;4.436;2023-05-10T08:53:12;11.36;92.73
78611;SHT30;67932;50.474;4.436;2023-05-10T08:55:39;11.44;93.11
78611;SHT30;67932;50.474;4.436;2023-05-10T08:58:06;11.44;92.22
78611;SHT30;67932;50.474;4.436;2023-05-10T09:00:33;11.50;92.05
78611;SHT30;67932;50.474;4.436;2023-05-10T09:03:00;11.56;93.16
78611;SHT30;67932;50.474;4.436;2023-05-10T09:05:26;11.73;93.31
78611;SHT30;67932;50.474;4.436;2023-05-10T09:07:53;11.71;92.96
78611;SHT30;67932;50.474;4.436;2023-05-10T09:10:20;11.84;92.73
78611;SHT30;67932;50.474;4.436;2023-05-10T09:12:48;11.74;91.30
78611;SHT30;67932;50.474;4.436;2023-05-10T09:15:18;11.64;91.62
78611;SHT30;67932;50.474;4.436;2023-05-10T09:17:46;11.60;91.35
78611;SHT30;67932;50.474;4.436;2023-05-10T09:20:13;11.66;90.65
78611;SHT30;67932;50.474;4.436;2023-05-10T09:22:39;11.68;90.39
78611;SHT30;67932;50.474;4.436;2023-05-10T09:25:11;11.68;91.70
78611;SHT30;67932;50.474;4.436;2023-05-10T09:27:39;11.74;90.43
78611;SHT30;67932;50.474;4.436;2023-05-10T09:30:07;11.74;89.21
78611;SHT30;67932;50.474;4.436;2023-05-10T09:32:40;11.75;89.16
78611;SHT30;67932;50.474;4.436;2023-05-10T09:35:11;11.87;89.46
78611;SHT30;67932;50.474;4.436;2023-05-10T09:37:41;11.77;90.94
78611;SHT30;67932;50.474;4.436;2023-05-10T09:40:12;11.79;91.09
78611;SHT30;67932;50.474;4.436;2023-05-10T09:42:39;12.09;90.07
78611;SHT30;67932;50.474;4.436;2023-05-10T09:45:07;12.06;90.67
78611;SHT30;67932;50.474;4.436;2023-05-10T09:47:34;12.02;89.63
78611;SHT30;67932;50.474;4.436;2023-05-10T09:50:04;12.15;90.92
78611;SHT30;67932;50.474;4.436;2023-05-10T09:52:45;12.21;91.61
78611;SHT30;67932;50.474;4.436;2023-05-10T09:55:12;12.01;89.60
78611;SHT30;67932;50.474;4.436;2023-05-10T09:57:38;11.99;89.84
78611;SHT30;67932;50.474;4.436;2023-05-10T10:00:05;11.95;91.21
78611;SHT30;67932;50.474;4.436;2023-05-10T10:02:32;11.94;90.97
78611;SHT30;67932;50.474;4.436;2023-05-10T10:05:02;12.01;90.66
78611;SHT30;67932;50.474;4.436;2023-05-10T10:07:32;12.06;90.56
78611;SHT30;67932;50.474;4.436;2023-05-10T10:09:59;11.98;91.88
78611;SHT30;67932;50.474;4.436;2023-05-10T10:12:26;11.95;92.51
78611;SHT30;67932;50.474;4.436;2023-05-10T10:14:52;11.94;91.56
78611;SHT30;67932;50.474;4.436;2023-05-10T10:17:20;12.01;92.17
78611;SHT30;67932;50.474;4.436;2023-05-10T10:19:49;12.12;91.94
78611;SHT30;67932;50.474;4.436;2023-05-10T10:22:15;12.21;91.80
78611;SHT30;67932;50.474;4.436;2023-05-10T10:24:43;12.26;91.79
78611;SHT30;67932;50.474;4.436;2023-05-10T10:35:43;12.36;90.47
78611;SHT30;67932;50.474;4.436;2023-05-10T10:38:12;12.53;91.09
78611;SHT30;67932;50.474;4.436;2023-05-10T10:40:39;12.50;90.81
78611;SHT30;67932;50.474;4.436;2023-05-10T10:43:25;12.57;91.58
78611;SHT30;67932;50.474;4.436;2023-05-10T10:46:17;12.57;90.13
78611;SHT30;67932;50.474;4.436;2023-05-10T10:49:08;12.43;89.62
78611;SHT30;67932;50.474;4.436;2023-05-10T10:51:39;12.57;91.19
78611;SHT30;67932;50.474;4.436;2023-05-10T10:54:11;12.76;92.23
78611;SHT30;67932;50.474;4.436;2023-05-10T10:56:38;12.64;89.55
78611;SHT30;67932;50.474;4.436;2023-05-10T10:59:05;12.82;90.95
78611;SHT30;67932;50.474;4.436;2023-05-10T11:01:35;12.72;88.72
78611;SHT30;67932;50.474;4.436;2023-05-10T11:06:34;12.83;89.53
78611;SHT30;67932;50.474;4.436;2023-05-10T11:09:11;12.77;90.59
78611;SHT30;67932;50.474;4.436;2023-05-10T11:11:50;12.63;91.51
78611;SHT30;67932;50.474;4.436;2023-05-10T11:14:21;12.69;90.92
78611;SHT30;67932;50.474;4.436;2023-05-10T11:16:48;12.70;89.72
78611;SHT30;67932;50.474;4.436;2023-05-10T11:19:16;12.76;90.59
78611;SHT30;67932;50.474;4.436;2023-05-10T11:24:29;12.73;89.14
78611;SHT30;67932;50.474;4.436;2023-05-10T11:26:55;12.77;89.69
78611;SHT30;67932;50.474;4.436;2023-05-10T11:29:22;12.87;89.91
78611;SHT30;67932;50.474;4.436;2023-05-10T11:31:50;12.97;88.68
78611;SHT30;67932;50.474;4.436;2023-05-10T11:34:27;12.82;88.81
78611;SHT30;67932;50.474;4.436;2023-05-10T11:36:55;12.72;88.97
78611;SHT30;67932;50.474;4.436;2023-05-10T11:39:29;12.82;91.43
78611;SHT30;67932;50.474;4.436;2023-05-10T11:41:56;13.14;91.52
78611;SHT30;67932;50.474;4.436;2023-05-10T11:44:23;13.17;90.06
78611;SHT30;67932;50.474;4.436;2023-05-10T11:46:49;12.97;88.33
78611;SHT30;67932;50.474;4.436;2023-05-10T11:49:16;12.93;89.82
78611;SHT30;67932;50.474;4.436;2023-05-10T11:51:42;12.90;88.56
78611;SHT30;67932;50.474;4.436;2023-05-10T11:54:10;12.94;88.98
78611;SHT30;67932;50.474;4.436;2023-05-10T11:56:41;13.04;88.24
78611;SHT30;67932;50.474;4.436;2023-05-10T11:59:07;13.06;87.22
78611;SHT30;67932;50.474;4.436;2023-05-10T12:01:34;13.20;89.63
78611;SHT30;67932;50.474;4.436;2023-05-10T12:04:01;13.26;87.64
78611;SHT30;67932;50.474;4.436;2023-05-10T12:06:29;13.36;88.28
78611;SHT30;67932;50.474;4.436;2023-05-10T12:08:57;13.26;85.87
78611;SHT30;67932;50.474;4.436;2023-05-10T12:11:28;13.30;85.61
78611;SHT30;67932;50.474;4.436;2023-05-10T12:13:55;13.40;87.13
78611;SHT30;67932;50.474;4.436;2023-05-10T12:16:24;13.26;85.58
78611;SHT30;67932;50.474;4.436;2023-05-10T12:18:52;13.18;86.12
78611;SHT30;67932;50.474;4.436;2023-05-10T12:21:20;13.20;87.01
78611;SHT30;67932;50.474;4.436;2023-05-10T12:23:48;13.33;87.51
78611;SHT30;67932;50.474;4.436;2023-05-10T12:26:14;13.28;85.14
78611;SHT30;67932;50.474;4.436;2023-05-10T12:28:41;13.37;85.93
78611;SHT30;67932;50.474;4.436;2023-05-10T12:31:07;13.58;85.65
78611;SHT30;67932;50.474;4.436;2023-05-10T12:33:44;13.57;84.55
78611;SHT30;67932;50.474;4.436;2023-05-10T12:36:12;13.55;84.89
78611;SHT30;67932;50.474;4.436;2023-05-10T12:39:02;13.85;84.39
78611;SHT30;67932;50.474;4.436;2023-05-10T12:41:29;13.85;84.87
78611;SHT30;67932;50.474;4.436;2023-05-10T12:43:56;13.92;85.80
78611;SHT30;67932;50.474;4.436;2023-05-10T12:46:22;14.09;83.78
78611;SHT30;67932;50.474;4.436;2023-05-10T12:48:51;14.32;81.72
78611;SHT30;67932;50.474;4.436;2023-05-10T12:51:20;14.25;81.22
78611;SHT30;67932;50.474;4.436;2023-05-10T12:53:48;14.43;80.61
78611;SHT30;67932;50.474;4.436;2023-05-10T12:56:14;14.35;81.70
78611;SHT30;67932;50.474;4.436;2023-05-10T12:58:41;14.33;81.01
78611;SHT30;67932;50.474;4.436;2023-05-10T13:01:07;14.45;81.62
78611;SHT30;67932;50.474;4.436;2023-05-10T13:03:34;14.21;80.62
78611;SHT30;67932;50.474;4.436;2023-05-10T13:06:00;14.37;81.97
78611;SHT30;67932;50.474;4.436;2023-05-10T13:08:26;14.32;81.45
78611;SHT30;67932;50.474;4.436;2023-05-10T13:10:53;14.33;81.68
78611;SHT30;67932;50.474;4.436;2023-05-10T13:13:19;14.39;83.63
78611;SHT30;67932;50.474;4.436;2023-05-10T13:15:46;14.67;83.35
78611;SHT30;67932;50.474;4.436;2023-05-10T13:18:12;14.63;81.12
78611;SHT30;67932;50.474;4.436;2023-05-10T13:20:38;14.50;83.77
78611;SHT30;67932;50.474;4.436;2023-05-10T13:23:05;14.75;82.72
78611;SHT30;67932;50.474;4.436;2023-05-10T13:25:31;14.55;84.25
78611;SHT30;67932;50.474;4.436;2023-05-10T13:27:57;14.46;83.55
78611;SHT30;67932;50.474;4.436;2023-05-10T13:30:24;14.39;84.45
78611;SHT30;67932;50.474;4.436;2023-05-10T13:32:50;14.35;83.28
78611;SHT30;67932;50.474;4.436;2023-05-10T13:35:16;14.29;83.81
78611;SHT30;67932;50.474;4.436;2023-05-10T13:37:42;14.11;82.27
78611;SHT30;67932;50.474;4.436;2023-05-10T13:40:09;13.94;85.52
78611;SHT30;67932;50.474;4.436;2023-05-10T13:42:36;13.83;85.28
78611;SHT30;67932;50.474;4.436;2023-05-10T13:45:02;13.79;85.88
78611;SHT30;67932;50.474;4.436;2023-05-10T13:47:28;13.83;85.69
78611;SHT30;67932;50.474;4.436;2023-05-10T13:49:55;13.71;84.82
78611;SHT30;67932;50.474;4.436;2023-05-10T13:52:22;13.75;85.73
78611;SHT30;67932;50.474;4.436;2023-05-10T13:54:48;13.77;84.95
78611;SHT30;67932;50.474;4.436;2023-05-10T13:57:14;13.61;82.37
78611;SHT30;67932;50.474;4.436;2023-05-10T13:59:42;13.62;83.37
78611;SHT30;67932;50.474;4.436;2023-05-10T14:02:08;13.71;85.08
78611;SHT30;67932;50.474;4.436;2023-05-10T14:04:35;13.79;86.13
78611;SHT30;67932;50.474;4.436;2023-05-10T14:07:01;13.82;84.84
78611;SHT30;67932;50.474;4.436;2023-05-10T14:09:27;13.83;84.54
78611;SHT30;67932;50.474;4.436;2023-05-10T14:11:56;13.74;82.63
78611;SHT30;67932;50.474;4.436;2023-05-10T14:14:22;13.79;82.57
78611;SHT30;67932;50.474;4.436;2023-05-10T14:16:48;13.89;81.71
78611;SHT30;67932;50.474;4.436;2023-05-10T14:19:15;13.82;82.66
78611;SHT30;67932;50.474;4.436;2023-05-10T14:21:41;13.94;83.66
78611;SHT30;67932;50.474;4.436;2023-05-10T14:24:07;14.02;81.65
78611;SHT30;67932;50.474;4.436;2023-05-10T14:26:33;13.98;82.32
78611;SHT30;67932;50.474;4.436;2023-05-10T14:29:00;14.08;84.12
78611;SHT30;67932;50.474;4.436;2023-05-10T14:31:26;13.98;82.08
78611;SHT30;67932;50.474;4.436;2023-05-10T14:33:53;13.88;82.76
78611;SHT30;67932;50.474;4.436;2023-05-10T14:36:19;13.88;82.85
78611;SHT30;67932;50.474;4.436;2023-05-10T14:38:45;13.92;82.83
78611;SHT30;67932;50.474;4.436;2023-05-10T14:41:13;14.01;83.87
78611;SHT30;67932;50.474;4.436;2023-05-10T14:43:41;13.95;81.56
78611;SHT30;67932;50.474;4.436;2023-05-10T14:46:07;13.95;79.86
78611;SHT30;67932;50.474;4.436;2023-05-10T14:48:34;14.04;80.85
78611;SHT30;67932;50.474;4.436;2023-05-10T14:51:01;14.09;80.87
78611;SHT30;67932;50.474;4.436;2023-05-10T14:53:28;14.05;80.11
78611;SHT30;67932;50.474;4.436;2023-05-10T14:55:54;14.19;81.73
78611;SHT30;67932;50.474;4.436;2023-05-10T14:58:20;14.09;80.19
78611;SHT30;67932;50.474;4.436;2023-05-10T15:00:47;14.13;81.93
78611;SHT30;67932;50.474;4.436;2023-05-10T15:03:13;14.12;81.46
78611;SHT30;67932;50.474;4.436;2023-05-10T15:05:39;14.01;81.77
78611;SHT30;67932;50.474;4.436;2023-05-10T15:08:06;14.22;81.28
78611;SHT30;67932;50.474;4.436;2023-05-10T15:10:32;14.22;81.31
78611;SHT30;67932;50.474;4.436;2023-05-10T15:12:59;14.37;80.50
78611;SHT30;67932;50.474;4.436;2023-05-10T15:15:25;14.53;79.91
78611;SHT30;67932;50.474;4.436;2023-05-10T15:17:52;14.70;79.12
78611;SHT30;67932;50.474;4.436;2023-05-10T15:20:18;16.66;76.84
78611;SHT30;67932;50.474;4.436;2023-05-10T15:22:44;16.84;70.67
78611;SHT30;67932;50.474;4.436;2023-05-10T15:25:10;16.67;71.20
78611;SHT30;67932;50.474;4.436;2023-05-10T15:27:37;17.49;70.33
78611;SHT30;67932;50.474;4.436;2023-05-10T15:30:03;17.99;66.46
78611;SHT30;67932;50.474;4.436;2023-05-10T15:32:30;16.69;70.49
78611;SHT30;67932;50.474;4.436;2023-05-10T15:34:56;16.64;71.80
78611;SHT30;67932;50.474;4.436;2023-05-10T15:37:22;16.33;72.74
78611;SHT30;67932;50.474;4.436;2023-05-10T15:39:49;16.74;71.45
78611;SHT30;67932;50.474;4.436;2023-05-10T15:42:16;17.23;70.26
78611;SHT30;67932;50.474;4.436;2023-05-10T15:44:42;17.48;70.21
78611;SHT30;67932;50.474;4.436;2023-05-10T15:47:10;17.90;66.88
78611;SHT30;67932;50.474;4.436;2023-05-10T15:49:36;18.34;64.21
78611;SHT30;67932;50.474;4.436;2023-05-10T15:52:02;18.19;64.55
78611;SHT30;67932;50.474;4.436;2023-05-10T15:54:29;18.64;62.59
78611;SHT30;67932;50.474;4.436;2023-05-10T15:56:55;19.34;62.77
78611;SHT30;67932;50.474;4.436;2023-05-10T15:59:21;19.96;59.19
78611;SHT30;67932;50.474;4.436;2023-05-10T16:01:48;19.66;60.26